createdAt,value
2022-11-08T00:01:03.906Z,95540.97
2022-11-08T00:03:31.290Z,95547.53
2022-11-08T00:05:58.387Z,95547.06
2022-11-08T00:08:25.492Z,95541.22
2022-11-08T00:10:52.551Z,95541.00
2022-11-08T00:13:21.094Z,95553.63
2022-11-08T00:15:48.192Z,95547.28
2022-11-08T00:18:15.421Z,95551.97
2022-11-08T00:20:42.811Z,95541.50
2022-11-08T00:23:09.952Z,95547.81
2022-11-08T00:25:37.091Z,95544.97
2022-11-08T00:28:04.311Z,95541.53
2022-11-08T00:30:32.794Z,95532.63
2022-11-08T00:32:59.832Z,95533.44
2022-11-08T00:35:26.952Z,95536.00
2022-11-08T00:37:54.012Z,95538.22
2022-11-08T00:40:21.114Z,95544.56
2022-11-08T00:42:48.232Z,95545.19
2022-11-08T00:45:15.354Z,95537.19
2022-11-08T00:47:43.903Z,95542.97
2022-11-08T00:50:10.893Z,95538.25
2022-11-08T00:52:37.952Z,95541.94
2022-11-08T00:55:06.052Z,95538.91
2022-11-08T00:57:53.509Z,95530.63
2022-11-08T01:00:20.228Z,95533.53
2022-11-08T01:02:48.752Z,95534.34
2022-11-08T01:05:15.952Z,95527.03
2022-11-08T01:07:42.993Z,95530.47
2022-11-08T01:10:10.552Z,95522.41
2022-11-08T01:12:37.613Z,95524.72
2022-11-08T01:15:05.062Z,95518.66
2022-11-08T01:17:32.153Z,95512.50
2022-11-08T01:20:00.675Z,95506.66
2022-11-08T01:22:27.754Z,95505.84
2022-11-08T01:24:56.072Z,95510.31
2022-11-08T01:27:23.130Z,95510.56
2022-11-08T01:29:50.253Z,95513.78
2022-11-08T01:32:17.725Z,95518.59
2022-11-08T01:34:45.592Z,95518.81
2022-11-08T01:37:15.463Z,95506.50
2022-11-08T01:39:42.551Z,95504.72
2022-11-08T01:42:09.611Z,95499.47
2022-11-08T01:44:56.773Z,95492.78
2022-11-08T01:47:23.825Z,95494.97
2022-11-08T01:49:56.558Z,95484.69
2022-11-08T01:52:32.316Z,95488.78
2022-11-08T01:55:07.817Z,95476.19
2022-11-08T01:57:43.578Z,95488.31
2022-11-08T02:00:12.395Z,95478.19
2022-11-08T02:02:42.817Z,95482.41
2022-11-08T02:05:15.541Z,95479.63
2022-11-08T02:07:44.136Z,95478.06
2022-11-08T02:10:12.117Z,95468.59
2022-11-08T02:12:39.178Z,95474.28
2022-11-08T02:15:07.716Z,95464.81
2022-11-08T02:17:34.858Z,95472.09
2022-11-08T02:20:02.676Z,95462.22
2022-11-08T02:22:39.556Z,95460.28
2022-11-08T02:25:08.398Z,95453.19
2022-11-08T02:27:35.430Z,95455.63
2022-11-08T02:30:02.533Z,95451.00
2022-11-08T02:32:38.436Z,95444.94
2022-11-08T02:35:11.414Z,95434.66
2022-11-08T02:37:39.053Z,95446.97
2022-11-08T02:40:09.158Z,95446.97
2022-11-08T02:42:38.553Z,95440.91
2022-11-08T02:45:07.995Z,95436.34
2022-11-08T02:47:35.052Z,95436.13
2022-11-08T02:50:02.132Z,95432.09
2022-11-08T02:52:29.133Z,95435.13
2022-11-08T02:54:56.207Z,95440.91
2022-11-08T02:57:24.707Z,95444.53
2022-11-08T02:59:51.706Z,95448.13
2022-11-08T03:02:18.940Z,95442.28
2022-11-08T03:04:46.146Z,95449.97
2022-11-08T03:07:13.225Z,95445.38
2022-11-08T03:09:40.328Z,95444.78
2022-11-08T03:12:07.688Z,95440.16
2022-11-08T03:14:36.190Z,95441.94
2022-11-08T03:17:03.288Z,95437.28
2022-11-08T03:19:30.467Z,95433.84
2022-11-08T03:21:57.428Z,95428.00
2022-11-08T03:24:24.509Z,95428.03
2022-11-08T03:26:51.507Z,95433.50
2022-11-08T03:29:18.588Z,95433.94
2022-11-08T03:31:47.211Z,95448.06
2022-11-08T03:34:14.335Z,95438.38
2022-11-08T03:36:41.390Z,95441.22
2022-11-08T03:39:08.430Z,95446.44
2022-11-08T03:41:35.489Z,95452.06
2022-11-08T03:44:02.529Z,95446.63
2022-11-08T03:46:29.551Z,95437.59
2022-11-08T03:48:58.020Z,95438.06
2022-11-08T03:51:25.029Z,95449.13
2022-11-08T03:53:52.148Z,95441.88
2022-11-08T03:56:19.198Z,95446.94
2022-11-08T03:58:46.608Z,95444.25
2022-11-08T04:01:13.694Z,95435.38
2022-11-08T04:03:40.768Z,95433.88
2022-11-08T04:06:09.610Z,95437.91
2022-11-08T04:08:36.649Z,95429.81
2022-11-08T04:11:03.792Z,95431.41
2022-11-08T04:13:30.810Z,95427.31
2022-11-08T04:15:58.320Z,95427.91
2022-11-08T04:18:25.389Z,95430.66
2022-11-08T04:20:52.428Z,95431.66
2022-11-08T04:23:20.929Z,95434.88
2022-11-08T04:25:54.428Z,95440.72
2022-11-08T04:28:23.969Z,95449.84
2022-11-08T04:30:56.329Z,95448.47
2022-11-08T04:33:24.528Z,95454.31
2022-11-08T04:35:52.830Z,95451.31
2022-11-08T04:38:21.894Z,95441.97
2022-11-08T04:40:49.369Z,95445.16
2022-11-08T04:43:16.451Z,95446.50
2022-11-08T04:45:43.490Z,95438.56
2022-11-08T04:48:10.688Z,95446.44
2022-11-08T04:50:37.689Z,95450.25
2022-11-08T04:53:04.769Z,95447.69
2022-11-08T04:55:33.310Z,95454.41
2022-11-08T04:58:00.348Z,95459.59
2022-11-08T05:00:27.648Z,95457.09
2022-11-08T05:02:54.832Z,95465.06
2022-11-08T05:05:22.521Z,95457.66
2022-11-08T05:07:49.630Z,95463.13
2022-11-08T05:10:16.692Z,95453.63
2022-11-08T05:12:45.230Z,95458.69
2022-11-08T05:15:12.768Z,95458.25
2022-11-08T05:17:39.818Z,95454.88
2022-11-08T05:20:10.041Z,95456.69
2022-11-08T05:22:37.049Z,95459.13
2022-11-08T05:25:04.709Z,95467.00
2022-11-08T05:27:31.788Z,95469.34
2022-11-08T05:30:00.368Z,95461.16
2022-11-08T05:32:27.488Z,95461.53
2022-11-08T05:34:54.628Z,95471.59
2022-11-08T05:37:21.671Z,95469.56
2022-11-08T05:39:48.749Z,95477.03
2022-11-08T05:42:15.790Z,95468.97
2022-11-08T05:44:42.788Z,95477.13
2022-11-08T05:47:11.329Z,95470.47
2022-11-08T05:49:38.412Z,95473.31
2022-11-08T05:52:05.631Z,95467.97
2022-11-08T05:54:32.689Z,95471.88
2022-11-08T05:56:59.789Z,95476.53
2022-11-08T05:59:26.831Z,95468.66
2022-11-08T06:01:53.936Z,95466.06
2022-11-08T06:04:22.650Z,95467.88
2022-11-08T06:06:50.128Z,95471.47
2022-11-08T06:09:17.250Z,95470.69
2022-11-08T06:11:44.329Z,95472.28
2022-11-08T06:14:11.491Z,95481.94
2022-11-08T06:16:38.553Z,95472.88
2022-11-08T06:19:05.571Z,95479.75
2022-11-08T06:21:34.109Z,95484.06
2022-11-08T06:24:01.149Z,95479.00
2022-11-08T06:26:28.269Z,95489.50
2022-11-08T06:28:55.314Z,95482.13
2022-11-08T06:31:22.349Z,95494.53
2022-11-08T06:33:49.729Z,95496.13
2022-11-08T06:36:16.777Z,95504.78
2022-11-08T06:38:45.370Z,95503.34
2022-11-08T06:41:19.348Z,95508.66
2022-11-08T06:43:46.669Z,95503.25
2022-11-08T06:46:13.889Z,95497.53
2022-11-08T06:48:41.189Z,95502.84
2022-11-08T06:51:08.261Z,95506.72
2022-11-08T06:53:35.408Z,95508.56
2022-11-08T06:56:04.294Z,95512.94
2022-11-08T06:58:32.212Z,95505.69
2022-11-08T07:01:03.450Z,95508.88
2022-11-08T07:03:30.449Z,95510.19
2022-11-08T07:05:57.533Z,95513.63
2022-11-08T07:08:24.625Z,95513.75
2022-11-08T07:10:51.909Z,95516.97
2022-11-08T07:13:21.369Z,95522.56
2022-11-08T07:15:49.229Z,95513.03
2022-11-08T07:18:18.978Z,95522.59
2022-11-08T07:20:46.390Z,95529.56
2022-11-08T07:23:14.020Z,95523.09
2022-11-08T07:25:41.256Z,95531.69
2022-11-08T07:28:14.609Z,95529.06
2022-11-08T07:30:43.330Z,95536.13
2022-11-08T07:33:10.649Z,95528.53
2022-11-08T07:35:38.431Z,95527.94
2022-11-08T07:38:05.510Z,95539.13
2022-11-08T07:40:33.850Z,95542.03
2022-11-08T07:43:16.507Z,95559.06
2022-11-08T07:45:45.090Z,95552.72
2022-11-08T07:48:13.887Z,95554.91
2022-11-08T07:50:42.382Z,95553.69
2022-11-08T07:53:10.753Z,95545.78
2022-11-08T07:55:39.385Z,95542.00
2022-11-08T07:58:07.344Z,95549.13
2022-11-08T08:00:38.988Z,95540.84
2022-11-08T08:03:09.916Z,95551.75
2022-11-08T08:05:39.809Z,95539.66
2022-11-08T08:08:07.803Z,95545.34
2022-11-08T08:10:35.805Z,95542.56
2022-11-08T08:13:04.323Z,95559.75
2022-11-08T08:15:32.083Z,95560.38
2022-11-08T08:18:01.406Z,95563.03
2022-11-08T08:20:30.933Z,95564.03
2022-11-08T08:22:59.344Z,95567.97
2022-11-08T08:25:28.365Z,95567.03
2022-11-08T08:27:57.825Z,95566.91
2022-11-08T08:30:25.828Z,95574.53
2022-11-08T08:33:26.454Z,95571.38
2022-11-08T08:35:49.146Z,95569.78
2022-11-08T08:38:16.227Z,95573.59
2022-11-08T08:40:43.306Z,95582.19
2022-11-08T08:43:10.705Z,95576.31
2022-11-08T08:45:38.425Z,95581.25
2022-11-08T08:48:05.864Z,95586.31
2022-11-08T08:50:33.386Z,95579.78
2022-11-08T08:53:03.791Z,95578.84
2022-11-08T08:55:31.306Z,95572.09
2022-11-08T08:57:58.396Z,95566.69
2022-11-08T09:03:13.645Z,95567.13
2022-11-08T09:05:41.818Z,95568.31
2022-11-08T09:08:10.584Z,95562.78
2022-11-08T09:10:37.624Z,95578.72
2022-11-08T09:13:04.950Z,95577.91
2022-11-08T09:15:32.747Z,95567.81
2022-11-08T09:18:00.266Z,95565.44
2022-11-08T09:20:27.486Z,95570.94
2022-11-08T09:22:54.765Z,95571.28
2022-11-08T09:25:23.643Z,95568.16
2022-11-08T09:27:50.767Z,95562.56
2022-11-08T09:30:18.166Z,95558.91
2022-11-08T09:33:01.951Z,95551.75
2022-11-08T09:35:30.562Z,95556.00
2022-11-08T09:37:58.868Z,95550.03
2022-11-08T09:40:33.307Z,95552.66
2022-11-08T09:43:17.273Z,95556.34
2022-11-08T09:45:48.087Z,95548.16
2022-11-08T09:48:25.264Z,95552.28
2022-11-08T09:50:55.584Z,95557.66
2022-11-08T09:53:32.504Z,95560.63
2022-11-08T09:56:08.046Z,95554.34
2022-11-08T09:58:40.378Z,95550.78
2022-11-08T10:01:12.847Z,95557.88
2022-11-08T10:03:47.958Z,95555.22
2022-11-08T10:06:37.204Z,95557.84
2022-11-08T10:09:20.166Z,95564.03
2022-11-08T10:12:09.326Z,95553.03
2022-11-08T10:14:55.968Z,95550.63
2022-11-08T10:17:44.327Z,95550.34
2022-11-08T10:20:27.564Z,95548.44
2022-11-08T10:23:10.723Z,95540.84
2022-11-08T10:25:44.606Z,95544.19
2022-11-08T10:28:18.186Z,95545.00
2022-11-08T10:30:51.024Z,95538.69
2022-11-08T10:33:23.911Z,95536.34
2022-11-08T10:36:02.216Z,95539.31
2022-11-08T10:38:38.326Z,95526.78
2022-11-08T10:41:18.793Z,95538.50
2022-11-08T10:43:55.465Z,95529.41
2022-11-08T10:46:37.484Z,95518.59
2022-11-08T10:49:14.143Z,95510.69
2022-11-08T10:51:42.966Z,95514.97
2022-11-08T10:54:40.348Z,95509.97
2022-11-08T10:57:08.384Z,95503.53
2022-11-08T10:59:37.144Z,95497.66
2022-11-08T11:02:16.445Z,95495.84
2022-11-08T11:04:43.604Z,95483.97
2022-11-08T11:07:32.888Z,95467.06
2022-11-08T11:10:22.085Z,95473.88
2022-11-08T11:12:51.666Z,95474.53
2022-11-08T11:15:20.384Z,95473.63
2022-11-08T11:17:47.984Z,95472.53
2022-11-08T11:20:24.231Z,95464.91
2022-11-08T11:22:53.384Z,95475.84
2022-11-08T11:25:23.658Z,95476.19
2022-11-08T11:27:57.947Z,95472.84
2022-11-08T11:30:30.687Z,95460.31
2022-11-08T11:33:02.130Z,95454.56
2022-11-08T11:35:40.257Z,95462.03
2022-11-08T11:38:19.571Z,95449.81
2022-11-08T11:40:49.028Z,95452.41
2022-11-08T11:43:24.446Z,95436.59
2022-11-08T11:46:02.846Z,95445.25
2022-11-08T11:48:35.949Z,95440.63
2022-11-08T11:51:03.419Z,95437.84
2022-11-08T11:53:33.987Z,95432.44
2022-11-08T11:56:42.448Z,95428.69
2022-11-08T11:59:32.882Z,95423.44
2022-11-08T12:02:31.004Z,95425.72
2022-11-08T12:05:20.044Z,95431.91
2022-11-08T12:07:58.079Z,95431.19
2022-11-08T12:10:43.139Z,95428.47
2022-11-08T12:13:23.819Z,95417.63
2022-11-08T12:16:00.780Z,95416.00
2022-11-08T12:18:46.902Z,95408.09
2022-11-08T12:21:22.000Z,95404.44
2022-11-08T12:24:04.360Z,95401.72
2022-11-08T12:26:40.937Z,95400.97
2022-11-08T12:29:27.379Z,95391.59
2022-11-08T12:32:26.945Z,95387.34
2022-11-08T12:35:10.804Z,95383.03
2022-11-08T12:37:55.400Z,95380.13
2022-11-08T12:40:34.501Z,95377.38
2022-11-08T12:43:22.684Z,95373.47
2022-11-08T12:46:03.261Z,95370.34
2022-11-08T12:48:50.700Z,95371.53
2022-11-08T12:51:27.999Z,95359.59
2022-11-08T12:54:22.859Z,95347.97
2022-11-08T12:56:55.960Z,95345.38
2022-11-08T12:59:28.819Z,95336.06
2022-11-08T13:01:58.500Z,95343.25
2022-11-08T13:04:43.760Z,95337.41
2022-11-08T13:07:32.020Z,95346.31
2022-11-08T13:10:12.265Z,95347.09
2022-11-08T13:12:53.600Z,95336.75
2022-11-08T13:15:23.479Z,95336.44
2022-11-08T13:18:23.268Z,95327.19
2022-11-08T13:20:50.805Z,95335.06
2022-11-08T13:23:28.040Z,95324.72
2022-11-08T13:26:12.920Z,95328.72
2022-11-08T13:28:43.306Z,95325.81
2022-11-08T13:31:21.727Z,95326.13
2022-11-08T13:34:10.140Z,95309.06
2022-11-08T13:36:51.859Z,95314.88
2022-11-08T13:39:43.519Z,95311.53
2022-11-08T13:42:30.049Z,95309.78
2022-11-08T13:45:11.202Z,95304.84
2022-11-08T13:47:53.923Z,95312.28
2022-11-08T13:50:46.139Z,95314.38
2022-11-08T13:53:42.331Z,95308.03
2022-11-08T13:56:26.399Z,95301.84
2022-11-08T13:58:53.700Z,95305.53
2022-11-08T14:02:04.896Z,95308.94
2022-11-08T14:04:34.803Z,95302.66
2022-11-08T14:07:12.223Z,95301.53
2022-11-08T14:09:52.483Z,95306.94
2022-11-08T14:12:31.866Z,95313.88
2022-11-08T14:15:07.634Z,95315.28
2022-11-08T14:17:43.839Z,95315.22
2022-11-08T14:20:38.947Z,95320.50
2022-11-08T14:23:24.807Z,95319.19
2022-11-08T14:25:55.460Z,95311.72
2022-11-08T14:28:29.607Z,95314.88
2022-11-08T14:30:57.884Z,95316.47
2022-11-08T14:33:26.816Z,95315.06
2022-11-08T14:35:57.460Z,95317.03
2022-11-08T14:38:25.083Z,95313.44
2022-11-08T14:40:55.524Z,95304.41
2022-11-08T14:43:23.387Z,95304.88
2022-11-08T14:45:52.860Z,95302.94
2022-11-08T14:48:26.316Z,95297.81
2022-11-08T14:50:59.713Z,95290.13
2022-11-08T14:53:29.675Z,95287.19
2022-11-08T14:56:05.389Z,95287.53
2022-11-08T14:58:32.726Z,95297.56
2022-11-08T15:01:05.242Z,95295.00
2022-11-08T15:03:34.084Z,95295.44
2022-11-08T15:06:03.946Z,95305.50
2022-11-08T15:08:34.660Z,95308.50
2022-11-08T15:11:05.003Z,95299.47
2022-11-08T15:13:40.165Z,95308.25
2022-11-08T15:16:10.964Z,95303.59
2022-11-08T15:18:40.701Z,95290.84
2022-11-08T15:21:22.840Z,95298.22
2022-11-08T15:23:52.555Z,95298.09
2022-11-08T15:26:22.735Z,95297.84
2022-11-08T15:29:02.138Z,95293.13
2022-11-08T15:31:35.178Z,95296.66
2022-11-08T15:34:02.618Z,95299.94
2022-11-08T15:36:34.494Z,95296.19
2022-11-08T15:39:02.837Z,95297.44
2022-11-08T15:41:33.914Z,95299.72
2022-11-08T15:44:15.456Z,95306.13
2022-11-08T15:46:44.345Z,95302.97
2022-11-08T15:49:20.614Z,95298.66
2022-11-08T15:51:49.135Z,95305.72
2022-11-08T15:54:17.395Z,95310.66
2022-11-08T15:56:46.302Z,95293.91
2022-11-08T15:59:21.121Z,95308.94
2022-11-08T16:01:56.821Z,95306.22
2022-11-08T16:04:27.679Z,95303.03
2022-11-08T16:06:54.852Z,95298.72
2022-11-08T16:09:22.079Z,95299.53
2022-11-08T16:11:50.657Z,95300.53
2022-11-08T16:14:22.624Z,95301.34
2022-11-08T16:16:51.047Z,95298.66
2022-11-08T16:19:22.145Z,95303.44
2022-11-08T16:21:49.556Z,95298.78
2022-11-08T16:24:17.325Z,95304.53
2022-11-08T16:26:46.179Z,95290.28
2022-11-08T16:29:19.775Z,95290.75
2022-11-08T16:31:47.415Z,95289.19
2022-11-08T16:34:14.622Z,95282.94
2022-11-08T16:36:45.215Z,95286.38
2022-11-08T16:39:16.377Z,95296.00
2022-11-08T16:41:43.463Z,95283.06
2022-11-08T16:44:11.448Z,95287.91
2022-11-08T16:46:38.875Z,95288.38
2022-11-08T16:49:07.696Z,95279.41
2022-11-08T16:51:35.836Z,95286.28
2022-11-08T16:54:17.196Z,95286.94
2022-11-08T16:56:44.781Z,95290.63
2022-11-08T16:59:11.849Z,95286.13
2022-11-08T17:01:40.098Z,95276.69
2022-11-08T17:04:07.259Z,95280.13
2022-11-08T17:06:34.407Z,95282.06
2022-11-08T17:09:01.584Z,95284.44
2022-11-08T17:11:30.096Z,95292.69
2022-11-08T17:13:57.215Z,95302.97
2022-11-08T17:16:25.435Z,95303.44
2022-11-08T17:18:53.340Z,95303.44
2022-11-08T17:21:43.728Z,95306.03
2022-11-08T17:24:09.897Z,95295.91
2022-11-08T17:26:38.556Z,95302.16
2022-11-08T17:29:05.676Z,95306.88
2022-11-08T17:31:32.737Z,95302.81
2022-11-08T17:33:59.818Z,95303.53
2022-11-08T17:36:26.838Z,95305.06
2022-11-08T17:38:53.936Z,95306.34
2022-11-08T17:41:21.319Z,95304.59
2022-11-08T17:43:49.918Z,95310.84
2022-11-08T17:46:17.081Z,95309.63
2022-11-08T17:48:44.197Z,95310.44
2022-11-08T17:51:11.215Z,95311.00
2022-11-08T17:53:38.396Z,95315.03
2022-11-08T17:56:06.555Z,95317.97
2022-11-08T17:58:34.862Z,95311.47
2022-11-08T18:01:05.918Z,95316.34
2022-11-08T18:03:34.116Z,95305.53
2022-11-08T18:06:03.016Z,95310.03
2022-11-08T18:08:32.615Z,95303.69
2022-11-08T18:11:00.981Z,95304.00
2022-11-08T18:13:29.303Z,95306.00
2022-11-08T18:16:07.694Z,95300.16
2022-11-08T18:18:35.636Z,95284.03
2022-11-08T18:21:02.943Z,95291.56
2022-11-08T18:23:29.998Z,95297.09
2022-11-08T18:25:57.271Z,95303.25
2022-11-08T18:28:25.000Z,95298.59
2022-11-08T18:30:52.398Z,95304.38
2022-11-08T18:33:22.132Z,95301.66
2022-11-08T18:35:51.956Z,95309.91
2022-11-08T18:38:20.656Z,95315.19
2022-11-08T18:40:49.618Z,95316.28
2022-11-08T18:43:16.830Z,95314.22
2022-11-08T18:45:44.516Z,95307.59
2022-11-08T18:48:11.755Z,95309.13
2022-11-08T18:50:40.333Z,95304.00
2022-11-08T18:53:07.513Z,95304.84
2022-11-08T18:55:35.495Z,95309.13
2022-11-08T18:58:02.855Z,95305.34
2022-11-08T19:00:33.294Z,95312.63
2022-11-08T19:03:00.854Z,95317.13
2022-11-08T19:05:28.017Z,95313.84
2022-11-08T19:07:56.614Z,95306.31
2022-11-08T19:10:29.405Z,95313.41
2022-11-08T19:12:56.553Z,95308.91
2022-11-08T19:15:23.614Z,95314.75
2022-11-08T19:17:52.400Z,95320.22
2022-11-08T19:20:19.935Z,95322.03
2022-11-08T19:22:52.514Z,95326.38
2022-11-08T19:25:21.053Z,95327.38
2022-11-08T19:27:48.595Z,95332.56
2022-11-08T19:30:15.773Z,95327.78
2022-11-08T19:32:42.914Z,95321.91
2022-11-08T19:35:10.293Z,95322.94
2022-11-08T19:37:37.534Z,95327.59
2022-11-08T19:40:05.653Z,95316.22
2022-11-08T19:42:34.175Z,95325.03
2022-11-08T19:45:01.216Z,95321.91
2022-11-08T19:47:28.279Z,95313.75
2022-11-08T19:49:55.453Z,95315.31
2022-11-08T19:52:22.613Z,95327.09
2022-11-08T19:54:49.793Z,95322.47
2022-11-08T19:57:17.553Z,95321.72
2022-11-08T19:59:47.114Z,95317.88
2022-11-08T20:02:14.725Z,95317.72
2022-11-08T20:04:41.934Z,95304.94
2022-11-08T20:07:09.840Z,95297.41
2022-11-08T20:09:38.216Z,95303.34
2022-11-08T20:12:05.373Z,95305.69
2022-11-08T20:14:32.534Z,95297.63
2022-11-08T20:17:01.233Z,95309.66
2022-11-08T20:19:28.473Z,95308.13
2022-11-08T20:21:58.191Z,95308.28
2022-11-08T20:24:25.605Z,95304.25
2022-11-08T20:26:52.838Z,95310.09
2022-11-08T20:29:19.945Z,95320.16
2022-11-08T20:31:50.569Z,95324.94
2022-11-08T20:34:19.845Z,95322.34
2022-11-08T20:36:48.390Z,95333.75
2022-11-08T20:39:16.566Z,95325.75
2022-11-08T20:41:43.986Z,95311.00
2022-11-08T20:44:11.586Z,95317.41
2022-11-08T20:46:39.199Z,95318.72
2022-11-08T20:49:07.284Z,95315.03
2022-11-08T20:51:35.907Z,95315.97
2022-11-08T20:54:03.389Z,95312.31
2022-11-08T20:56:30.547Z,95321.50
2022-11-08T20:58:57.846Z,95309.09
2022-11-08T21:01:28.114Z,95310.22
2022-11-08T21:03:56.517Z,95317.09
2022-11-08T21:06:26.065Z,95316.47
2022-11-08T21:09:01.832Z,95308.59
2022-11-08T21:11:33.417Z,95320.44
2022-11-08T21:14:01.386Z,95320.94
2022-11-08T21:16:31.006Z,95310.44
2022-11-08T21:19:01.651Z,95322.06
2022-11-08T21:21:29.247Z,95315.25
2022-11-08T21:23:58.120Z,95323.44
2022-11-08T21:26:25.688Z,95321.34
2022-11-08T21:28:54.886Z,95319.84
2022-11-08T21:31:22.165Z,95328.38
2022-11-08T21:33:49.489Z,95323.28
2022-11-08T21:36:16.686Z,95320.47
2022-11-08T21:38:44.565Z,95327.59
2022-11-08T21:41:13.746Z,95324.81
2022-11-08T21:43:42.905Z,95317.81
2022-11-08T21:46:18.505Z,95318.38
2022-11-08T21:48:46.164Z,95321.59
2022-11-08T21:51:13.544Z,95320.84
2022-11-08T21:53:49.270Z,95324.41
2022-11-08T21:56:18.165Z,95323.66
2022-11-08T21:58:45.309Z,95319.75
2022-11-08T22:01:12.452Z,95330.88
2022-11-08T22:03:39.591Z,95330.81
2022-11-08T22:06:07.428Z,95334.78
2022-11-08T22:08:34.565Z,95337.44
2022-11-08T22:11:01.665Z,95344.50
2022-11-08T22:13:30.247Z,95346.25
2022-11-08T22:15:57.345Z,95347.06
2022-11-08T22:18:42.975Z,95340.66
2022-11-08T22:21:11.464Z,95342.00
2022-11-08T22:23:38.564Z,95336.50
2022-11-08T22:26:06.264Z,95337.06
2022-11-08T22:28:34.805Z,95349.63
2022-11-08T22:31:01.925Z,95349.78
2022-11-08T22:33:29.032Z,95346.44
2022-11-08T22:35:56.048Z,95343.28
2022-11-08T22:38:23.105Z,95334.00
2022-11-08T22:40:50.365Z,95341.16
2022-11-08T22:43:17.477Z,95335.50
2022-11-08T22:45:45.965Z,95342.47
2022-11-08T22:48:13.005Z,95333.13
2022-11-08T22:50:40.129Z,95330.78
2022-11-08T22:53:07.225Z,95334.94
2022-11-08T22:55:34.604Z,95326.56
2022-11-08T22:58:01.844Z,95324.22
2022-11-08T23:00:28.986Z,95317.16
2022-11-08T23:02:57.945Z,95329.09
2022-11-08T23:05:25.047Z,95325.25
2022-11-08T23:07:52.086Z,95329.25
2022-11-08T23:10:19.445Z,95327.44
2022-11-08T23:12:46.530Z,95335.66
2022-11-08T23:15:13.705Z,95335.97
2022-11-08T23:17:40.784Z,95328.22
2022-11-08T23:20:10.723Z,95318.69
2022-11-08T23:22:37.788Z,95327.59
2022-11-08T23:25:05.724Z,95334.56
2022-11-08T23:27:32.805Z,95331.41
2022-11-08T23:29:59.945Z,95325.16
2022-11-08T23:32:27.544Z,95324.69
2022-11-08T23:34:54.605Z,95321.06
2022-11-08T23:37:23.251Z,95329.00
2022-11-08T23:39:50.284Z,95330.38
2022-11-08T23:42:17.348Z,95329.56
2022-11-08T23:44:44.444Z,95330.38
2022-11-08T23:47:11.526Z,95316.91
2022-11-08T23:49:38.604Z,95317.22
2022-11-08T23:52:05.885Z,95323.81
2022-11-08T23:54:34.532Z,95325.91
2022-11-08T23:57:01.645Z,95319.72
2022-11-08T23:59:28.725Z,95329.25
